createdAt,value
2022-08-11T00:02:00.166Z,102096.38
2022-08-11T00:04:27.742Z,102090.81
2022-08-11T00:06:55.002Z,102084.25
2022-08-11T00:09:31.617Z,102087.69
2022-08-11T00:12:13.986Z,102086.91
2022-08-11T00:14:40.997Z,102092.72
2022-08-11T00:17:15.818Z,102092.19
2022-08-11T00:20:13.298Z,102081.63
2022-08-11T00:22:34.761Z,102085.59
2022-08-11T00:25:10.200Z,102083.50
2022-08-11T00:27:39.536Z,102081.66
2022-08-11T00:30:08.377Z,102079.56
2022-08-11T00:32:37.574Z,102083.53
2022-08-11T00:35:54.097Z,102084.88
2022-08-11T00:37:56.929Z,102086.47
2022-08-11T00:40:32.883Z,102076.44
2022-08-11T00:43:23.886Z,102074.56
2022-08-11T00:46:20.653Z,102076.94
2022-08-11T00:49:13.959Z,102071.69
2022-08-11T00:52:34.424Z,102073.81
2022-08-11T00:55:26.433Z,102075.06
2022-08-11T00:58:48.346Z,102071.13
2022-08-11T01:01:17.677Z,102079.06
2022-08-11T01:04:02.911Z,102074.03
2022-08-11T01:06:51.884Z,102093.31
2022-08-11T01:09:54.832Z,102091.44
2022-08-11T01:12:36.335Z,102091.19
2022-08-11T01:15:24.529Z,102092.00
2022-08-11T01:17:57.090Z,102097.50
2022-08-11T01:20:49.405Z,102089.59
2022-08-11T01:23:41.181Z,102087.22
2022-08-11T01:27:02.796Z,102093.56
2022-08-11T01:30:06.703Z,102083.78
2022-08-11T01:32:45.134Z,102078.25
2022-08-11T01:35:42.494Z,102086.41
2022-08-11T01:38:29.305Z,102080.59
2022-08-11T01:41:25.355Z,102076.38
2022-08-11T01:44:29.431Z,102085.59
2022-08-11T01:47:53.212Z,102083.75
2022-08-11T01:51:04.035Z,102091.63
2022-08-11T01:53:33.671Z,102090.06
2022-08-11T01:56:16.931Z,102097.69
2022-08-11T01:59:08.266Z,102090.56
2022-08-11T02:02:04.237Z,102082.59
2022-08-11T02:04:42.227Z,102083.91
2022-08-11T02:07:26.209Z,102080.47
2022-08-11T02:10:35.280Z,102085.72
2022-08-11T02:13:16.970Z,102080.97
2022-08-11T02:16:08.163Z,102081.22
2022-08-11T02:18:59.058Z,102068.84
2022-08-11T02:21:57.031Z,102074.09
2022-08-11T02:24:44.809Z,102069.59
2022-08-11T02:27:38.619Z,102078.03
2022-08-11T02:30:09.956Z,102077.47
2022-08-11T02:33:09.074Z,102078.78
2022-08-11T02:35:49.301Z,102079.31
2022-08-11T02:38:30.838Z,102077.19
2022-08-11T02:41:33.993Z,102081.13
2022-08-11T02:44:16.401Z,102073.47
2022-08-11T02:47:09.394Z,102080.28
2022-08-11T02:50:06.192Z,102069.75
2022-08-11T02:52:50.691Z,102077.34
2022-08-11T02:55:56.461Z,102070.50
2022-08-11T02:58:36.549Z,102075.22
2022-08-11T03:01:23.332Z,102073.88
2022-08-11T03:03:55.230Z,102078.09
2022-08-11T03:06:35.694Z,102071.75
2022-08-11T03:09:11.060Z,102069.38
2022-08-11T03:12:14.604Z,102071.69
2022-08-11T03:15:17.484Z,102070.09
2022-08-11T03:18:16.400Z,102075.88
2022-08-11T03:20:49.555Z,102072.13
2022-08-11T03:23:47.356Z,102070.53
2022-08-11T03:26:26.260Z,102070.78
2022-08-11T03:29:10.593Z,102079.69
2022-08-11T03:31:55.746Z,102081.03
2022-08-11T03:34:26.004Z,102077.56
2022-08-11T03:37:48.432Z,102078.59
2022-08-11T03:40:55.718Z,102071.16
2022-08-11T03:43:29.395Z,102077.75
2022-08-11T03:46:06.502Z,102066.41
2022-08-11T03:48:48.934Z,102070.31
2022-08-11T03:51:25.031Z,102069.28
2022-08-11T03:54:16.409Z,102071.31
2022-08-11T03:57:09.250Z,102065.81
2022-08-11T03:59:51.251Z,102075.25
2022-08-11T04:02:50.574Z,102076.78
2022-08-11T04:05:47.687Z,102068.59
2022-08-11T04:08:51.805Z,102065.16
2022-08-11T04:11:27.635Z,102075.38
2022-08-11T04:14:44.913Z,102074.88
2022-08-11T04:17:47.630Z,102072.69
2022-08-11T04:20:43.424Z,102072.16
2022-08-11T04:24:35.793Z,102071.88
2022-08-11T04:26:57.673Z,102074.19
2022-08-11T04:30:01.983Z,102075.22
2022-08-11T04:32:55.220Z,102072.03
2022-08-11T04:35:52.766Z,102069.38
2022-08-11T04:38:48.994Z,102071.19
2022-08-11T04:41:57.024Z,102068.53
2022-08-11T04:44:35.331Z,102069.03
2022-08-11T04:48:04.504Z,102068.72
2022-08-11T04:51:20.483Z,102065.84
2022-08-11T04:54:18.600Z,102071.63
2022-08-11T04:57:06.452Z,102069.44
2022-08-11T05:00:16.261Z,102064.97
2022-08-11T05:03:27.670Z,102056.00
2022-08-11T05:06:38.805Z,102071.00
2022-08-11T05:09:20.514Z,102063.88
2022-08-11T05:12:07.869Z,102063.59
2022-08-11T05:14:59.564Z,102052.81
2022-08-11T05:18:18.534Z,102056.00
2022-08-11T05:21:15.532Z,102053.66
2022-08-11T05:24:12.504Z,102064.97
2022-08-11T05:27:04.653Z,102071.53
2022-08-11T05:30:03.273Z,102073.94
2022-08-11T05:33:00.891Z,102063.97
2022-08-11T05:36:02.435Z,102065.84
2022-08-11T05:38:51.402Z,102070.28
2022-08-11T05:41:40.163Z,102075.09
2022-08-11T05:44:25.505Z,102065.91
2022-08-11T05:47:10.530Z,102070.69
2022-08-11T05:49:58.183Z,102070.75
2022-08-11T05:52:49.229Z,102063.13
2022-08-11T05:56:03.130Z,102070.53
2022-08-11T05:58:42.395Z,102063.75
2022-08-11T06:01:13.543Z,102068.78
2022-08-11T06:04:03.081Z,102061.47
2022-08-11T06:06:30.486Z,102067.81
2022-08-11T06:08:59.519Z,102069.19
2022-08-11T06:11:43.190Z,102066.56
2022-08-11T06:14:12.302Z,102071.88
2022-08-11T06:16:42.049Z,102076.63
2022-08-11T06:19:10.351Z,102082.72
2022-08-11T06:21:37.877Z,102078.81
2022-08-11T06:24:11.258Z,102076.72
2022-08-11T06:27:01.225Z,102074.13
2022-08-11T06:29:37.893Z,102071.50
2022-08-11T06:32:14.531Z,102068.09
2022-08-11T06:34:59.694Z,102074.41
2022-08-11T06:38:23.480Z,102065.50
2022-08-11T06:41:13.731Z,102063.16
2022-08-11T06:44:05.962Z,102071.31
2022-08-11T06:46:39.271Z,102076.88
2022-08-11T06:49:28.147Z,102077.19
2022-08-11T06:52:01.827Z,102078.03
2022-08-11T06:54:35.254Z,102078.56
2022-08-11T06:57:30.508Z,102069.88
2022-08-11T07:00:17.324Z,102072.31
2022-08-11T07:03:09.138Z,102076.78
2022-08-11T07:06:11.104Z,102075.22
2022-08-11T07:09:29.266Z,102073.41
2022-08-11T07:12:26.585Z,102072.63
2022-08-11T07:15:13.959Z,102077.66
2022-08-11T07:18:09.613Z,102070.84
2022-08-11T07:21:01.417Z,102074.56
2022-08-11T07:23:52.963Z,102081.69
2022-08-11T07:26:40.469Z,102061.16
2022-08-11T07:29:09.836Z,102070.09
2022-08-11T07:31:50.102Z,102056.94
2022-08-11T07:34:22.605Z,102064.34
2022-08-11T07:37:17.964Z,102064.63
2022-08-11T07:39:46.596Z,102066.75
2022-08-11T07:42:23.896Z,102065.19
2022-08-11T07:45:11.104Z,102069.41
2022-08-11T07:47:57.989Z,102064.16
2022-08-11T07:50:43.985Z,102063.41
2022-08-11T07:53:13.022Z,102075.56
2022-08-11T07:55:51.483Z,102067.38
2022-08-11T07:58:45.545Z,102066.59
2022-08-11T08:01:45.929Z,102059.47
2022-08-11T08:04:33.471Z,102071.63
2022-08-11T08:07:22.052Z,102078.78
2022-08-11T08:10:07.902Z,102073.22
2022-08-11T08:12:54.352Z,102071.91
2022-08-11T08:15:41.250Z,102069.53
2022-08-11T08:18:26.751Z,102069.28
2022-08-11T08:20:56.593Z,102071.94
2022-08-11T08:23:35.321Z,102071.94
2022-08-11T08:26:04.608Z,102072.72
2022-08-11T08:28:33.528Z,102073.25
2022-08-11T08:31:00.503Z,102072.19
2022-08-11T08:33:30.350Z,102079.84
2022-08-11T08:36:12.425Z,102076.19
2022-08-11T08:38:41.571Z,102066.66
2022-08-11T08:41:09.946Z,102073.78
2022-08-11T08:43:49.047Z,102063.22
2022-08-11T08:46:20.646Z,102077.22
2022-08-11T08:48:49.112Z,102080.13
2022-08-11T08:51:54.874Z,102070.59
2022-08-11T08:54:29.015Z,102063.19
2022-08-11T08:56:57.249Z,102062.66
2022-08-11T08:59:27.366Z,102058.41
2022-08-11T09:02:14.220Z,102059.97
2022-08-11T09:04:44.551Z,102054.41
2022-08-11T09:07:13.399Z,102046.47
2022-08-11T09:09:51.953Z,102045.63
2022-08-11T09:12:38.385Z,102043.22
2022-08-11T09:15:09.155Z,102050.34
2022-08-11T09:17:40.799Z,102042.69
2022-08-11T09:20:21.485Z,102046.63
2022-08-11T09:26:17.782Z,102052.41
2022-08-11T09:28:45.743Z,102046.59
2022-08-11T09:31:14.243Z,102044.19
2022-08-11T09:33:42.906Z,102034.88
2022-08-11T09:36:30.416Z,102032.72
2022-08-11T09:39:16.625Z,102040.38
2022-08-11T09:41:55.735Z,102027.69
2022-08-11T09:44:49.397Z,102018.94
2022-08-11T09:47:28.575Z,102024.75
2022-08-11T09:50:00.147Z,102018.38
2022-08-11T09:52:28.784Z,102013.03
2022-08-11T09:54:55.615Z,102017.22
2022-08-11T09:57:41.755Z,102017.94
2022-08-11T10:00:13.593Z,102012.63
2022-08-11T10:02:49.380Z,102009.97
2022-08-11T10:05:37.774Z,102011.50
2022-08-11T10:08:07.300Z,102012.50
2022-08-11T10:10:38.922Z,101993.16
2022-08-11T10:14:09.263Z,101997.91
2022-08-11T10:16:16.271Z,101992.28
2022-08-11T10:18:52.829Z,101980.56
2022-08-11T10:21:28.942Z,101983.47
2022-08-11T10:24:17.207Z,101996.41
2022-08-11T10:26:52.295Z,101977.06
2022-08-11T10:29:44.478Z,101977.78
2022-08-11T10:32:49.369Z,101974.78
2022-08-11T10:35:26.388Z,101973.75
2022-08-11T10:38:05.747Z,101967.03
2022-08-11T10:40:35.805Z,101966.69
2022-08-11T10:43:03.618Z,101959.53
2022-08-11T10:45:50.282Z,101964.53
2022-08-11T10:48:21.073Z,101949.06
2022-08-11T10:51:08.145Z,101952.25
2022-08-11T10:53:54.898Z,101953.56
2022-08-11T10:56:40.746Z,101958.22
2022-08-11T10:59:09.264Z,101951.81
2022-08-11T11:01:42.524Z,101957.34
2022-08-11T11:04:21.208Z,101962.06
2022-08-11T11:07:03.688Z,101950.91
2022-08-11T11:09:33.099Z,101940.78
2022-08-11T11:12:39.541Z,101940.25
2022-08-11T11:15:25.734Z,101950.25
2022-08-11T11:17:56.282Z,101949.69
2022-08-11T11:20:37.022Z,101947.28
2022-08-11T11:23:10.137Z,101946.94
2022-08-11T11:26:06.487Z,101938.41
2022-08-11T11:28:51.716Z,101935.72
2022-08-11T11:31:50.993Z,101936.00
2022-08-11T11:34:37.894Z,101928.78
2022-08-11T11:37:20.849Z,101938.25
2022-08-11T11:39:47.991Z,101926.59
2022-08-11T11:42:16.509Z,101927.06
2022-08-11T11:44:45.116Z,101929.88
2022-08-11T11:47:13.203Z,101935.88
2022-08-11T11:49:43.864Z,101925.78
2022-08-11T11:52:21.033Z,101919.47
2022-08-11T11:54:50.365Z,101921.50
2022-08-11T11:57:36.996Z,101922.47
2022-08-11T12:00:33.183Z,101918.75
2022-08-11T12:03:03.158Z,101922.16
2022-08-11T12:05:33.602Z,101918.91
2022-08-11T12:08:16.038Z,101931.03
2022-08-11T12:11:28.665Z,101922.28
2022-08-11T12:13:58.519Z,101922.41
2022-08-11T12:16:34.806Z,101922.06
2022-08-11T12:19:06.053Z,101914.00
2022-08-11T12:21:35.005Z,101911.34
2022-08-11T12:24:21.008Z,101905.72
2022-08-11T12:27:15.152Z,101894.25
2022-08-11T12:29:35.474Z,101889.31
2022-08-11T12:32:07.189Z,101891.34
2022-08-11T12:34:33.855Z,101892.16
2022-08-11T12:37:05.614Z,101885.06
2022-08-11T12:40:16.573Z,101890.91
2022-08-11T12:43:03.996Z,101886.44
2022-08-11T12:45:38.567Z,101875.19
2022-08-11T12:48:58.915Z,101887.34
2022-08-11T12:52:13.120Z,101875.31
2022-08-11T12:54:27.419Z,101872.28
2022-08-11T12:57:24.118Z,101870.72
2022-08-11T13:00:26.464Z,101867.13
2022-08-11T13:03:13.666Z,101866.44
2022-08-11T13:05:45.040Z,101845.97
2022-08-11T13:08:15.319Z,101850.94
2022-08-11T13:11:01.702Z,101849.47
2022-08-11T13:13:53.762Z,101854.41
2022-08-11T13:16:17.715Z,101860.59
2022-08-11T13:18:45.060Z,101845.41
2022-08-11T13:21:20.547Z,101851.81
2022-08-11T13:23:59.679Z,101850.69
2022-08-11T13:26:47.517Z,101840.25
2022-08-11T13:29:26.242Z,101844.50
2022-08-11T13:31:55.866Z,101841.59
2022-08-11T13:34:25.268Z,101835.16
2022-08-11T13:36:54.193Z,101830.31
2022-08-11T13:39:24.620Z,101822.34
2022-08-11T13:41:53.409Z,101832.47
2022-08-11T13:44:25.535Z,101833.47
2022-08-11T13:46:56.335Z,101837.63
2022-08-11T13:49:24.223Z,101834.91
2022-08-11T13:51:51.953Z,101840.41
2022-08-11T13:54:22.611Z,101831.84
2022-08-11T13:56:53.527Z,101826.56
2022-08-11T13:59:22.922Z,101820.97
2022-08-11T14:02:21.416Z,101828.38
2022-08-11T14:04:55.865Z,101813.41
2022-08-11T14:07:25.694Z,101807.91
2022-08-11T14:09:59.772Z,101804.19
2022-08-11T14:12:46.446Z,101807.25
2022-08-11T14:15:27.646Z,101802.28
2022-08-11T14:18:01.589Z,101803.28
2022-08-11T14:20:50.845Z,101790.81
2022-08-11T14:23:19.440Z,101793.38
2022-08-11T14:26:15.622Z,101801.78
2022-08-11T14:28:45.117Z,101797.31
2022-08-11T14:31:16.080Z,101790.31
2022-08-11T14:34:00.346Z,101795.03
2022-08-11T14:36:35.223Z,101783.56
2022-08-11T14:39:05.780Z,101789.28
2022-08-11T14:42:07.620Z,101776.22
2022-08-11T14:44:57.740Z,101787.38
2022-08-11T14:47:25.891Z,101784.84
2022-08-11T14:50:10.762Z,101786.63
2022-08-11T14:52:44.739Z,101779.38
2022-08-11T14:55:31.378Z,101786.22
2022-08-11T14:57:58.887Z,101782.81
2022-08-11T15:00:26.569Z,101774.59
2022-08-11T15:03:13.511Z,101780.09
2022-08-11T15:06:02.166Z,101778.50
2022-08-11T15:08:50.482Z,101777.38
2022-08-11T15:11:38.058Z,101771.09
2022-08-11T15:14:07.531Z,101777.75
2022-08-11T15:16:54.605Z,101757.25
2022-08-11T15:19:21.597Z,101761.03
2022-08-11T15:22:08.980Z,101763.59
2022-08-11T15:24:36.566Z,101760.66
2022-08-11T15:27:27.303Z,101762.25
2022-08-11T15:30:29.923Z,101750.19
2022-08-11T15:33:20.219Z,101753.75
2022-08-11T15:36:05.672Z,101735.41
2022-08-11T15:38:36.237Z,101736.63
2022-08-11T15:41:24.071Z,101734.66
2022-08-11T15:44:13.244Z,101735.09
2022-08-11T15:46:44.617Z,101731.22
2022-08-11T15:50:11.501Z,101737.09
2022-08-11T15:52:21.234Z,101736.34
2022-08-11T15:54:49.175Z,101734.25
2022-08-11T15:57:40.083Z,101732.72
2022-08-11T16:00:26.570Z,101730.19
2022-08-11T16:02:55.087Z,101739.19
2022-08-11T16:05:46.030Z,101733.94
2022-08-11T16:08:13.223Z,101743.16
2022-08-11T16:10:42.414Z,101734.81
2022-08-11T16:13:13.335Z,101732.69
2022-08-11T16:16:04.080Z,101723.53
2022-08-11T16:18:43.432Z,101723.16
2022-08-11T16:21:34.053Z,101723.56
2022-08-11T16:24:06.117Z,101728.66
2022-08-11T16:27:10.332Z,101716.38
2022-08-11T16:29:25.308Z,101719.91
2022-08-11T16:32:14.459Z,101721.09
2022-08-11T16:35:02.279Z,101719.41
2022-08-11T16:37:49.816Z,101728.00
2022-08-11T16:40:17.583Z,101723.91
2022-08-11T16:43:11.381Z,101724.94
2022-08-11T16:45:58.687Z,101723.97
2022-08-11T16:48:35.006Z,101714.19
2022-08-11T16:51:03.855Z,101711.88
2022-08-11T16:53:49.010Z,101716.75
2022-08-11T16:56:24.740Z,101712.47
2022-08-11T16:59:13.344Z,101709.16
2022-08-11T17:01:41.971Z,101715.84
2022-08-11T17:04:53.894Z,101706.78
2022-08-11T17:07:43.202Z,101706.66
2022-08-11T17:10:52.641Z,101711.94
2022-08-11T17:13:27.916Z,101706.44
2022-08-11T17:16:10.022Z,101711.13
2022-08-11T17:18:57.749Z,101709.19
2022-08-11T17:21:57.741Z,101710.19
2022-08-11T17:24:27.533Z,101705.06
2022-08-11T17:26:56.951Z,101696.47
2022-08-11T17:29:53.827Z,101703.13
2022-08-11T17:32:56.669Z,101718.00
2022-08-11T17:35:34.133Z,101713.50
2022-08-11T17:38:12.883Z,101716.22
2022-08-11T17:41:01.685Z,101722.50
2022-08-11T17:43:48.845Z,101716.44
2022-08-11T17:46:37.590Z,101711.94
2022-08-11T17:49:08.223Z,101711.88
2022-08-11T17:51:56.016Z,101705.81
2022-08-11T17:54:43.579Z,101714.03
2022-08-11T17:57:30.423Z,101708.41
2022-08-11T17:59:57.969Z,101723.25
2022-08-11T18:02:51.691Z,101710.72
2022-08-11T18:05:21.542Z,101709.94
2022-08-11T18:08:10.197Z,101715.03
2022-08-11T18:10:57.444Z,101719.13
2022-08-11T18:13:43.666Z,101714.63
2022-08-11T18:16:30.038Z,101725.75
2022-08-11T18:19:15.796Z,101727.91
2022-08-11T18:22:14.812Z,101723.59
2022-08-11T18:25:12.426Z,101731.22
2022-08-11T18:28:00.868Z,101734.53
2022-08-11T18:30:49.936Z,101736.09
2022-08-11T18:34:05.969Z,101733.72
2022-08-11T18:36:49.452Z,101733.69
2022-08-11T18:39:38.455Z,101741.09
2022-08-11T18:42:29.592Z,101739.34
2022-08-11T18:45:19.774Z,101740.28
2022-08-11T18:48:09.271Z,101741.06
2022-08-11T18:51:00.674Z,101746.13
2022-08-11T18:54:09.248Z,101748.03
2022-08-11T18:56:54.609Z,101753.69
2022-08-11T18:59:44.300Z,101753.06
2022-08-11T19:02:31.277Z,101746.78
2022-08-11T19:05:18.828Z,101753.81
2022-08-11T19:08:26.245Z,101750.28
2022-08-11T19:11:14.249Z,101751.41
2022-08-11T19:14:03.971Z,101758.44
2022-08-11T19:16:51.127Z,101761.50
2022-08-11T19:19:38.119Z,101760.31
2022-08-11T19:22:23.981Z,101759.53
2022-08-11T19:25:10.512Z,101767.69
2022-08-11T19:27:58.197Z,101773.34
2022-08-11T19:30:45.006Z,101769.97
2022-08-11T19:34:03.092Z,101770.94
2022-08-11T19:36:37.285Z,101769.13
2022-08-11T19:39:23.088Z,101769.47
2022-08-11T19:42:08.732Z,101772.22
2022-08-11T19:44:54.064Z,101775.50
2022-08-11T19:47:40.952Z,101779.91
2022-08-11T19:50:27.212Z,101776.78
2022-08-11T19:53:16.891Z,101772.66
2022-08-11T19:56:05.432Z,101766.38
2022-08-11T19:58:52.317Z,101780.00
2022-08-11T20:01:37.952Z,101777.44
2022-08-11T20:04:43.506Z,101776.59
2022-08-11T20:07:32.288Z,101777.53
2022-08-11T20:10:22.442Z,101776.53
2022-08-11T20:13:08.841Z,101775.88
2022-08-11T20:15:57.707Z,101780.72
2022-08-11T20:18:44.653Z,101786.13
2022-08-11T20:21:33.501Z,101775.56
2022-08-11T20:24:20.757Z,101772.78
2022-08-11T20:27:07.347Z,101773.91
2022-08-11T20:30:07.239Z,101774.59
2022-08-11T20:32:54.441Z,101780.25
2022-08-11T20:35:40.210Z,101776.88
2022-08-11T20:38:28.098Z,101772.16
2022-08-11T20:41:16.269Z,101783.44
2022-08-11T20:44:05.660Z,101781.44
2022-08-11T20:46:58.229Z,101788.19
2022-08-11T20:49:53.834Z,101784.25
2022-08-11T20:52:49.783Z,101791.78
2022-08-11T20:55:52.142Z,101785.50
2022-08-11T21:01:52.114Z,101784.59
2022-08-11T21:04:54.355Z,101790.03
2022-08-11T21:07:55.619Z,101788.00
2022-08-11T21:10:51.140Z,101777.44
2022-08-11T21:13:41.395Z,101788.66
2022-08-11T21:16:31.763Z,101795.41
2022-08-11T21:19:59.688Z,101791.81
2022-08-11T21:22:58.565Z,101798.00
2022-08-11T21:25:48.088Z,101798.34
2022-08-11T21:28:36.878Z,101791.81
2022-08-11T21:31:24.928Z,101802.47
2022-08-11T21:34:11.008Z,101791.16
2022-08-11T21:36:58.755Z,101788.56
2022-08-11T21:39:46.054Z,101798.78
2022-08-11T21:42:32.127Z,101799.91
2022-08-11T21:45:18.992Z,101800.25
2022-08-11T21:48:04.925Z,101802.13
2022-08-11T21:50:50.004Z,101798.31
2022-08-11T21:53:36.457Z,101798.31
2022-08-11T21:56:22.630Z,101802.13
2022-08-11T21:59:14.803Z,101800.84
2022-08-11T22:02:00.734Z,101805.09
2022-08-11T22:04:46.545Z,101802.28
2022-08-11T22:07:31.826Z,101800.72
2022-08-11T22:10:40.783Z,101802.94
2022-08-11T22:13:30.516Z,101804.84
2022-08-11T22:16:19.158Z,101797.78
2022-08-11T22:19:10.519Z,101795.97
2022-08-11T22:22:03.593Z,101801.31
2022-08-11T22:24:51.265Z,101811.19
2022-08-11T22:27:36.550Z,101810.19
2022-08-11T22:30:23.345Z,101804.66
2022-08-11T22:33:09.049Z,101807.13
2022-08-11T22:35:54.283Z,101805.31
2022-08-11T22:38:40.448Z,101798.22
2022-08-11T22:41:25.535Z,101795.63
2022-08-11T22:44:10.585Z,101801.78
2022-08-11T22:46:55.712Z,101804.78
2022-08-11T22:49:57.061Z,101792.88
2022-08-11T22:52:43.892Z,101798.75
2022-08-11T22:55:29.217Z,101808.06
2022-08-11T22:58:14.708Z,101806.03
2022-08-11T23:01:00.495Z,101803.97
2022-08-11T23:03:46.007Z,101796.13
2022-08-11T23:06:32.913Z,101794.53
2022-08-11T23:09:19.421Z,101808.63
2022-08-11T23:12:06.672Z,101797.81
2022-08-11T23:14:57.544Z,101795.56
2022-08-11T23:17:43.582Z,101803.50
2022-08-11T23:20:39.105Z,101791.69
2022-08-11T23:23:27.054Z,101806.81
2022-08-11T23:26:14.270Z,101807.13
2022-08-11T23:29:05.059Z,101805.06
2022-08-11T23:31:53.375Z,101810.41
2022-08-11T23:35:37.343Z,101807.81
2022-08-11T23:37:48.684Z,101807.88
2022-08-11T23:40:34.144Z,101800.53
2022-08-11T23:43:19.966Z,101796.56
2022-08-11T23:46:04.929Z,101793.41
2022-08-11T23:48:50.791Z,101798.78
2022-08-11T23:51:40.793Z,101800.16
2022-08-11T23:54:27.365Z,101801.50
2022-08-11T23:57:13.232Z,101794.41
2022-08-11T23:59:58.077Z,101793.91
